Time;durP1;ratioP1;P1;durP2;ratioP2;P2;SDS_P1;SDS_P2;PMS_P1;PMS_P2;Temp;Humidity;BMP_temperature;BMP_pressure;BME280_temperature;BME280_humidity;BME280_pressure;Samples;Min_cycle;Max_cycle;Signal;HPM_P1;HPM_P2
2022/11/01 00:00:56;;;;;;;21.42;14.23;;;14.50;99.90;;;;;;5093495;28;20409;-92
2022/11/01 00:03:22;;;;;;;20.73;13.50;;;14.50;99.90;;;;;;5076367;28;20043;-92
2022/11/01 00:05:47;;;;;;;17.30;9.32;;;14.60;99.90;;;;;;5093552;28;20043;-92
2022/11/01 00:08:13;;;;;;;15.40;8.60;;;14.50;99.90;;;;;;5093401;28;20036;-92
2022/11/01 00:10:38;;;;;;;19.98;8.57;;;14.50;99.90;;;;;;5093475;28;20044;-93
2022/11/01 00:13:04;;;;;;;18.00;13.00;;;14.50;99.90;;;;;;5093019;28;20044;-92
2022/11/01 00:15:30;;;;;;;20.65;13.35;;;14.50;99.90;;;;;;5093348;28;20035;-92
2022/11/01 00:17:55;;;;;;;16.25;7.78;;;14.60;99.90;;;;;;5093387;28;20039;-92
2022/11/01 00:20:21;;;;;;;20.63;12.43;;;14.60;99.90;;;;;;5076329;28;20120;-92
2022/11/01 00:22:47;;;;;;;16.75;8.98;;;14.60;99.90;;;;;;5092858;28;20089;-92
2022/11/01 00:25:12;;;;;;;18.52;12.15;;;14.60;99.90;;;;;;5093469;28;20039;-92
2022/11/01 00:27:38;;;;;;;15.70;8.32;;;14.60;99.90;;;;;;5093161;28;20412;-93
2022/11/01 00:30:04;;;;;;;18.00;13.00;;;14.60;99.90;;;;;;5093409;28;20413;-92
2022/11/01 00:32:29;;;;;;;20.42;12.43;;;14.60;99.90;;;;;;5098409;28;20456;-92
2022/11/01 00:34:55;;;;;;;18.70;12.35;;;14.70;99.90;;;;;;5092935;28;20247;-92
2022/11/01 00:37:21;;;;;;;17.77;8.40;;;14.70;99.90;;;;;;5076105;28;20080;-93
2022/11/01 00:39:46;;;;;;;17.75;7.97;;;14.70;99.90;;;;;;5093124;28;20091;-92
2022/11/01 00:42:12;;;;;;;17.75;11.25;;;14.60;99.90;;;;;;5092499;28;20565;-92
2022/11/01 00:44:37;;;;;;;22.65;13.88;;;14.70;99.90;;;;;;5092742;28;20042;-92
2022/11/01 00:47:03;;;;;;;15.52;11.30;;;14.70;99.90;;;;;;5092987;28;20126;-92
2022/11/01 00:49:28;;;;;;;17.08;7.50;;;14.70;99.90;;;;;;5092988;28;20519;-92
2022/11/01 00:51:54;;;;;;;18.70;7.80;;;14.70;99.90;;;;;;5075744;28;20489;-92
2022/11/01 00:54:19;;;;;;;19.80;11.77;;;14.70;99.90;;;;;;5075324;28;20036;-92
2022/11/01 00:56:45;;;;;;;18.33;11.70;;;14.70;99.90;;;;;;5092506;28;20036;-92
2022/11/01 00:59:10;;;;;;;15.40;7.75;;;14.80;99.90;;;;;;5089789;28;20032;-92
2022/11/01 01:01:36;;;;;;;18.42;10.68;;;14.80;99.90;;;;;;5092417;28;20042;-92
2022/11/01 01:04:01;;;;;;;14.13;6.88;;;14.80;99.90;;;;;;5092402;28;20043;-92
2022/11/01 01:06:27;;;;;;;18.15;7.53;;;14.80;99.90;;;;;;5092229;28;20036;-92
2022/11/01 01:08:52;;;;;;;18.08;10.55;;;14.80;99.90;;;;;;5092664;28;20122;-92
2022/11/01 01:11:18;;;;;;;17.08;10.95;;;14.80;99.90;;;;;;5092561;28;20040;-92
2022/11/01 01:13:43;;;;;;;17.27;11.20;;;14.80;99.90;;;;;;5092322;28;20032;-92
2022/11/01 01:16:10;;;;;;;16.40;10.75;;;14.90;99.90;;;;;;5092609;28;20412;-92
2022/11/01 01:18:36;;;;;;;18.45;10.45;;;14.90;99.90;;;;;;5092547;28;20560;-92
2022/11/01 01:21:03;;;;;;;16.95;7.10;;;14.90;99.90;;;;;;5075749;28;20114;-92
2022/11/01 01:23:29;;;;;;;14.77;7.38;;;14.90;99.90;;;;;;5075176;28;20036;-92
2022/11/01 01:25:55;;;;;;;12.43;6.15;;;14.90;99.90;;;;;;5075659;28;20090;-93
2022/11/01 01:28:20;;;;;;;16.95;9.95;;;14.80;99.90;;;;;;5075616;28;20433;-92
2022/11/01 01:30:46;;;;;;;15.65;9.95;;;14.90;99.90;;;;;;5075326;28;20647;-92
2022/11/01 01:33:11;;;;;;;17.15;10.85;;;14.90;99.90;;;;;;5091962;28;20410;-92
2022/11/01 01:35:37;;;;;;;14.50;9.35;;;14.90;99.90;;;;;;5092190;28;20485;-92
2022/11/01 01:38:03;;;;;;;16.38;9.77;;;15.00;99.90;;;;;;5092191;28;20085;-92
2022/11/01 01:40:29;;;;;;;19.50;11.18;;;15.00;99.90;;;;;;5075233;28;20040;-92
2022/11/01 01:42:54;;;;;;;14.18;7.22;;;15.00;99.90;;;;;;5092034;28;20051;-93
2022/11/01 01:45:30;;;;;;;19.05;9.93;;;14.90;99.90;;;;;;5075312;28;20127;-92
2022/11/01 01:48:25;;;;;;;16.73;9.45;;;15.00;99.90;;;;;;5075304;28;20123;-92
2022/11/01 01:50:58;;;;;;;16.27;9.93;;;15.00;99.90;;;;;;5086848;28;20079;-92
2022/11/01 01:53:29;;;;;;;18.15;9.65;;;15.00;99.90;;;;;;5091739;28;20044;-92
2022/11/01 01:56:01;;;;;;;15.43;6.25;;;15.00;99.90;;;;;;5075385;28;20435;-92
2022/11/01 01:58:34;;;;;;;14.70;5.65;;;15.00;99.90;;;;;;5074957;28;20036;-92
2022/11/01 02:01:00;;;;;;;15.45;9.32;;;14.90;99.90;;;;;;5092872;28;20089;-92
2022/11/01 02:03:30;;;;;;;19.52;9.88;;;14.90;99.90;;;;;;5074648;28;20040;-92
2022/11/01 02:06:26;;;;;;;17.70;6.82;;;15.00;99.90;;;;;;5091802;28;20039;-92
2022/11/01 02:08:55;;;;;;;14.20;5.68;;;15.00;99.90;;;;;;5070423;28;20051;-92
2022/11/01 02:11:21;;;;;;;17.02;9.60;;;15.00;99.90;;;;;;5074582;28;20078;-92
2022/11/01 02:13:46;;;;;;;15.25;9.65;;;15.00;99.90;;;;;;5091070;28;20086;-92
2022/11/01 02:16:41;;;;;;;16.70;6.03;;;15.00;99.90;;;;;;5091423;28;20028;-92
2022/11/01 02:19:25;;;;;;;16.70;9.50;;;15.00;99.90;;;;;;5074813;28;20081;-92
2022/11/01 02:22:08;;;;;;;15.27;6.22;;;15.00;99.90;;;;;;5074636;28;20047;-92
2022/11/01 02:25:12;;;;;;;17.38;9.15;;;15.00;99.90;;;;;;5091462;28;20447;-92
2022/11/01 02:27:55;;;;;;;18.63;9.32;;;15.00;99.90;;;;;;5024268;28;20509;-92
2022/11/01 02:30:23;;;;;;;17.98;5.78;;;15.10;99.90;;;;;;5091105;28;20036;-92
2022/11/01 02:33:00;;;;;;;14.65;6.07;;;15.00;99.90;;;;;;5090890;28;20551;-92
2022/11/01 02:35:54;;;;;;;14.93;8.85;;;15.00;99.90;;;;;;5091205;28;20563;-92
2022/11/01 02:38:34;;;;;;;15.60;8.85;;;15.00;99.90;;;;;;5074220;28;20507;-92
2022/11/01 02:41:19;;;;;;;15.00;8.27;;;15.10;99.90;;;;;;5074498;28;20032;-92
2022/11/01 02:43:51;;;;;;;14.68;8.10;;;15.10;99.90;;;;;;5073811;28;20040;-92
2022/11/01 02:49:05;;;;;;;14.15;7.97;;;15.10;99.90;;;;;;5090922;28;20048;-92
2022/11/01 02:51:33;;;;;;;15.60;7.85;;;15.10;99.90;;;;;;5091032;28;20051;-92
2022/11/01 02:54:16;;;;;;;16.27;8.25;;;15.10;99.90;;;;;;5090722;28;20524;-92
2022/11/01 02:56:42;;;;;;;14.27;7.75;;;15.20;99.90;;;;;;5090779;28;20169;-92
2022/11/01 02:59:16;;;;;;;12.70;5.40;;;15.20;99.90;;;;;;5090870;28;20119;-93
2022/11/01 03:01:48;;;;;;;13.60;6.80;;;15.20;99.90;;;;;;5090948;28;20501;-92
2022/11/01 03:04:13;;;;;;;15.45;5.10;;;15.30;99.90;;;;;;5073864;28;20036;-92
2022/11/01 03:06:48;;;;;;;15.70;7.30;;;15.30;99.90;;;;;;5090673;28;20181;-92
2022/11/01 03:09:14;;;;;;;14.25;6.68;;;15.30;99.90;;;;;;5091036;28;20405;-92
2022/11/01 03:12:00;;;;;;;15.20;6.85;;;15.40;99.90;;;;;;5090665;28;20585;-92
2022/11/01 03:14:41;;;;;;;12.88;6.15;;;15.50;99.90;;;;;;5073948;28;20042;-92
2022/11/01 03:17:31;;;;;;;14.40;5.93;;;15.60;99.90;;;;;;5090586;28;20071;-92
2022/11/01 03:20:05;;;;;;;12.38;5.60;;;15.70;99.90;;;;;;5074003;28;20047;-92
2022/11/01 03:22:45;;;;;;;12.20;5.70;;;15.70;99.90;;;;;;5090406;28;20043;-92
2022/11/01 03:28:11;;;;;;;14.27;5.40;;;15.80;99.90;;;;;;5091571;28;20040;-92
2022/11/01 03:30:43;;;;;;;13.40;5.43;;;15.90;99.90;;;;;;5094538;28;20058;-92
2022/11/01 03:33:14;;;;;;;9.30;4.05;;;16.00;99.90;;;;;;5094292;28;20513;-93
2022/11/01 03:35:43;;;;;;;12.55;5.45;;;16.00;99.90;;;;;;5077792;28;20074;-92
2022/11/01 03:38:14;;;;;;;12.90;5.50;;;16.00;99.90;;;;;;5094516;28;20072;-92
2022/11/01 03:40:43;;;;;;;11.23;3.85;;;16.10;99.90;;;;;;5095838;28;20036;-92
2022/11/01 03:43:12;;;;;;;11.75;5.65;;;16.00;99.90;;;;;;5094001;28;20040;-92
2022/11/01 03:45:39;;;;;;;11.38;6.00;;;16.10;99.90;;;;;;5077495;28;20083;-92
2022/11/01 03:48:05;;;;;;;11.32;5.28;;;16.10;99.90;;;;;;5094553;28;20108;-92
2022/11/01 03:50:31;;;;;;;14.10;5.43;;;16.10;99.90;;;;;;5077395;28;20055;-92
2022/11/01 03:52:57;;;;;;;13.35;5.15;;;16.20;99.90;;;;;;5093808;28;20073;-93
2022/11/01 03:55:23;;;;;;;12.73;5.85;;;16.20;99.90;;;;;;5094214;28;20040;-93
2022/11/01 03:57:51;;;;;;;14.50;5.85;;;16.20;99.90;;;;;;5093969;28;20165;-93
2022/11/01 04:00:25;;;;;;;11.35;5.18;;;16.20;99.90;;;;;;5094060;28;20036;-92
2022/11/01 04:02:53;;;;;;;12.50;4.95;;;16.20;99.90;;;;;;5093660;28;20044;-92
2022/11/01 04:05:21;;;;;;;12.65;5.28;;;16.20;99.90;;;;;;5094364;28;20408;-93
2022/11/01 04:07:48;;;;;;;10.13;3.63;;;16.20;99.90;;;;;;5093925;28;20417;-92
2022/11/01 04:10:14;;;;;;;11.73;5.50;;;16.10;99.90;;;;;;5076928;28;20050;-92
2022/11/01 04:12:42;;;;;;;13.45;5.32;;;16.20;99.90;;;;;;5093438;28;20070;-93
2022/11/01 04:20:54;;;;;;;12.23;5.28;;;16.30;99.90;;;;;;5093754;28;20036;-92
2022/11/01 04:23:19;;;;;;;12.70;3.60;;;16.30;99.90;;;;;;5076396;28;20507;-92
2022/11/01 04:25:45;;;;;;;10.73;5.00;;;16.40;99.90;;;;;;5093589;28;20036;-92
2022/11/01 04:28:12;;;;;;;11.65;4.97;;;16.40;99.90;;;;;;5093659;28;20044;-92
2022/11/01 04:30:37;;;;;;;11.77;5.68;;;16.40;99.90;;;;;;5093420;28;20048;-92
2022/11/01 04:33:03;;;;;;;9.98;5.00;;;16.50;99.90;;;;;;5076182;28;20412;-92
2022/11/01 04:35:28;;;;;;;10.35;5.28;;;16.50;99.90;;;;;;5093493;28;20032;-92
2022/11/01 04:37:58;;;;;;;12.93;5.63;;;16.50;99.90;;;;;;5076560;28;20089;-92
2022/11/01 04:40:24;;;;;;;10.80;5.47;;;16.60;99.90;;;;;;5092732;28;20032;-92
2022/11/01 04:42:51;;;;;;;11.52;4.93;;;16.60;99.90;;;;;;5076095;28;20497;-93
2022/11/01 04:45:17;;;;;;;13.35;3.90;;;16.60;99.90;;;;;;5093361;28;20044;-92
2022/11/01 04:47:50;;;;;;;13.23;5.20;;;16.60;99.90;;;;;;5093104;28;20081;-92
2022/11/01 04:50:18;;;;;;;13.10;6.00;;;16.60;99.90;;;;;;5093274;28;20100;-92
2022/11/01 04:52:43;;;;;;;13.13;5.35;;;16.60;99.90;;;;;;5094006;28;20044;-92
2022/11/01 04:55:09;;;;;;;12.60;5.80;;;16.60;99.90;;;;;;5093123;28;20126;-92
2022/11/01 04:57:39;;;;;;;11.55;5.35;;;16.60;99.90;;;;;;5094309;28;20111;-92
2022/11/01 05:00:07;;;;;;;13.35;5.78;;;16.70;99.90;;;;;;5093035;28;20040;-92
2022/11/01 05:02:32;;;;;;;12.88;6.05;;;16.70;99.90;;;;;;5092385;28;20500;-92
2022/11/01 05:04:58;;;;;;;11.68;5.40;;;16.70;99.90;;;;;;5076057;28;20040;-92
2022/11/01 05:07:23;;;;;;;12.98;5.65;;;16.70;99.90;;;;;;5093180;28;20077;-92
2022/11/01 05:09:49;;;;;;;13.38;5.25;;;16.70;99.90;;;;;;5094118;28;20561;-92
2022/11/01 05:12:14;;;;;;;12.80;5.28;;;16.70;99.90;;;;;;5075692;28;20173;-93
2022/11/01 05:14:40;;;;;;;11.57;5.22;;;16.70;99.90;;;;;;5092871;28;20674;-92
2022/11/01 05:17:05;;;;;;;12.82;3.85;;;16.70;99.90;;;;;;5093905;28;20516;-92
2022/11/01 05:19:31;;;;;;;12.93;5.07;;;16.70;99.90;;;;;;5092573;28;20043;-92
2022/11/01 05:21:58;;;;;;;14.85;5.15;;;16.70;99.90;;;;;;5092803;28;20048;-92
2022/11/01 05:24:24;;;;;;;12.40;5.32;;;16.70;99.90;;;;;;5075244;28;20040;-92
2022/11/01 05:26:49;;;;;;;15.15;5.90;;;16.70;99.90;;;;;;5092739;28;20042;-92
2022/11/01 05:29:15;;;;;;;10.93;4.70;;;16.70;99.90;;;;;;5092512;28;20439;-92
2022/11/01 05:31:41;;;;;;;12.35;5.38;;;16.70;99.90;;;;;;5092057;28;20079;-92
2022/11/01 05:34:06;;;;;;;12.32;5.35;;;16.70;99.90;;;;;;5075307;28;20092;-93
2022/11/01 05:36:32;;;;;;;11.15;4.65;;;16.80;99.90;;;;;;5092200;28;20405;-92
2022/11/01 05:38:58;;;;;;;12.80;4.90;;;16.70;99.90;;;;;;5075617;28;20040;-92
2022/11/01 05:41:24;;;;;;;9.02;3.30;;;16.80;99.90;;;;;;5093450;28;20092;-92
2022/11/01 05:43:50;;;;;;;12.40;5.28;;;16.70;99.90;;;;;;5074892;28;20070;-92
2022/11/01 05:46:16;;;;;;;10.68;4.55;;;16.70;99.90;;;;;;5092001;28;20044;-93
2022/11/01 05:48:41;;;;;;;10.45;4.55;;;16.70;99.90;;;;;;5091991;28;20044;-92
2022/11/01 05:51:08;;;;;;;13.60;5.22;;;16.70;99.90;;;;;;5074613;28;20417;-92
2022/11/01 05:53:33;;;;;;;10.73;4.75;;;16.60;99.90;;;;;;5090901;28;20078;-92
2022/11/01 05:55:59;;;;;;;11.32;5.15;;;16.60;99.90;;;;;;5091942;28;20078;-92
2022/11/01 05:58:25;;;;;;;10.93;3.78;;;16.50;99.90;;;;;;5093064;28;20502;-92
2022/11/01 06:01:00;;;;;;;9.60;4.53;;;16.40;99.90;;;;;;5093004;28;20036;-92
2022/11/01 06:03:26;;;;;;;10.43;4.35;;;16.40;99.90;;;;;;5091409;28;20115;-92
2022/11/01 06:05:51;;;;;;;8.18;3.08;;;16.40;99.90;;;;;;5074962;28;20136;-92
2022/11/01 06:08:17;;;;;;;6.63;2.28;;;16.30;99.90;;;;;;5091660;28;20040;-92
2022/11/01 06:10:43;;;;;;;9.95;3.63;;;16.30;99.90;;;;;;5091405;28;20118;-92
2022/11/01 06:13:08;;;;;;;9.40;2.92;;;16.20;99.90;;;;;;5091114;28;20054;-92
2022/11/01 06:15:34;;;;;;;10.13;3.35;;;16.20;99.90;;;;;;5091741;28;20036;-92
2022/11/01 06:18:00;;;;;;;7.72;1.98;;;16.20;99.90;;;;;;5090999;28;20036;-92
2022/11/01 06:20:28;;;;;;;4.45;1.13;;;16.10;99.90;;;;;;5073894;28;20090;-92
2022/11/01 06:22:55;;;;;;;3.97;0.98;;;15.90;99.90;;;;;;5090769;28;20488;-93
2022/11/01 06:25:21;;;;;;;6.25;1.65;;;15.90;99.90;;;;;;5091469;28;20040;-92
2022/11/01 06:27:46;;;;;;;5.90;1.65;;;15.80;99.90;;;;;;5091236;28;20036;-92
2022/11/01 06:30:12;;;;;;;4.50;1.33;;;15.80;99.90;;;;;;5091089;28;20075;-92
2022/11/01 06:32:37;;;;;;;6.32;1.70;;;15.60;99.90;;;;;;5090748;28;20047;-92
2022/11/01 06:35:03;;;;;;;4.50;0.90;;;15.60;99.90;;;;;;5074424;28;20051;-93
2022/11/01 06:37:29;;;;;;;6.32;1.60;;;15.50;99.90;;;;;;5091182;28;20071;-92
2022/11/01 06:39:55;;;;;;;7.32;1.70;;;15.50;99.90;;;;;;5090846;28;20033;-93
2022/11/01 06:42:20;;;;;;;7.50;1.60;;;15.50;99.90;;;;;;5090901;28;20165;-92
2022/11/01 06:44:46;;;;;;;5.82;1.17;;;15.40;99.90;;;;;;5091205;28;20079;-92
2022/11/01 06:47:12;;;;;;;5.63;1.50;;;15.40;99.90;;;;;;5074158;28;20485;-92
2022/11/01 06:49:38;;;;;;;5.28;1.50;;;15.30;99.90;;;;;;5090787;28;20043;-92
2022/11/01 06:52:04;;;;;;;6.78;1.45;;;15.30;99.90;;;;;;5090653;28;20194;-92
2022/11/01 06:54:30;;;;;;;5.15;1.10;;;15.20;99.90;;;;;;5073807;28;20528;-92
2022/11/01 06:56:56;;;;;;;3.60;0.93;;;15.10;99.90;;;;;;5090636;28;20114;-91
2022/11/01 06:59:22;;;;;;;3.63;1.08;;;15.00;99.90;;;;;;5090347;28;20073;-92
2022/11/01 07:01:48;;;;;;;7.07;1.50;;;15.00;99.90;;;;;;5073747;28;20044;-92
2022/11/01 07:04:13;;;;;;;2.40;0.70;;;14.90;99.90;;;;;;5089114;28;20024;-91
2022/11/01 07:06:39;;;;;;;3.97;1.10;;;14.90;99.90;;;;;;5073050;28;20550;-92
2022/11/01 07:09:05;;;;;;;6.90;1.70;;;14.80;99.90;;;;;;5074102;28;20040;-90
2022/11/01 07:11:32;;;;;;;6.28;0.90;;;14.80;99.90;;;;;;5090718;28;20028;-90
2022/11/01 07:13:58;;;;;;;5.18;1.30;;;14.80;99.90;;;;;;5090544;28;20073;-90
2022/11/01 07:16:25;;;;;;;1.73;0.70;;;14.80;99.90;;;;;;5073695;28;20044;-90
2022/11/01 07:18:50;;;;;;;4.55;1.38;;;14.70;99.90;;;;;;5090939;28;20154;-90
2022/11/01 07:21:16;;;;;;;6.22;1.27;;;14.70;99.90;;;;;;5090495;28;20626;-90
2022/11/01 07:23:42;;;;;;;3.80;0.95;;;14.70;99.90;;;;;;5090089;28;20044;-90
2022/11/01 07:26:07;;;;;;;2.75;0.63;;;14.70;99.90;;;;;;5090704;28;20139;-90
2022/11/01 07:28:33;;;;;;;5.32;0.93;;;14.60;99.90;;;;;;5090391;28;20047;-90
2022/11/01 07:30:59;;;;;;;8.30;1.45;;;14.60;99.90;;;;;;5090570;28;20047;-90
2022/11/01 07:33:25;;;;;;;6.07;1.33;;;14.60;99.90;;;;;;5073171;28;20089;-90
2022/11/01 07:35:51;;;;;;;3.00;0.77;;;14.60;99.90;;;;;;5091445;28;20482;-90
2022/11/01 07:38:17;;;;;;;5.03;1.02;;;14.60;99.90;;;;;;5091571;28;20040;-90
2022/11/01 07:40:48;;;;;;;5.60;1.35;;;14.60;99.90;;;;;;5090333;28;20043;-90
2022/11/01 07:43:14;;;;;;;5.97;1.25;;;14.60;99.90;;;;;;5073241;28;20044;-90
2022/11/01 07:45:39;;;;;;;3.33;0.85;;;14.60;99.90;;;;;;5090382;28;20493;-90
2022/11/01 07:48:09;;;;;;;6.22;1.40;;;14.60;99.90;;;;;;5090352;28;20039;-90
2022/11/01 07:50:35;;;;;;;7.05;1.60;;;14.70;99.90;;;;;;5091558;28;20509;-90
2022/11/01 07:53:04;;;;;;;7.50;1.65;;;14.70;99.90;;;;;;5069873;28;20248;-90
2022/11/01 07:55:30;;;;;;;7.97;1.23;;;14.70;99.90;;;;;;5072750;28;20043;-89
2022/11/01 07:57:56;;;;;;;8.68;1.42;;;14.70;99.90;;;;;;5089698;28;20040;-90
2022/11/01 08:00:22;;;;;;;10.80;2.08;;;14.70;99.90;;;;;;5072823;28;20389;-90
2022/11/01 08:02:48;;;;;;;5.65;1.05;;;14.70;99.90;;;;;;5089373;28;20101;-90
2022/11/01 08:05:13;;;;;;;6.20;1.33;;;14.70;99.90;;;;;;5089738;28;20136;-90
2022/11/01 08:07:39;;;;;;;13.10;2.33;;;14.70;99.90;;;;;;5089473;28;20093;-90
2022/11/01 08:10:07;;;;;;;7.68;1.60;;;14.70;99.90;;;;;;5073012;28;20051;-90
2022/11/01 08:12:32;;;;;;;6.35;0.90;;;14.70;99.90;;;;;;5088934;28;20032;-90
2022/11/01 08:14:58;;;;;;;9.13;2.30;;;14.70;99.90;;;;;;5073768;28;20058;-90
2022/11/01 08:17:23;;;;;;;7.60;1.38;;;14.70;99.90;;;;;;5093483;28;20040;-90
2022/11/01 08:19:49;;;;;;;6.55;1.70;;;14.70;99.90;;;;;;5092642;28;20505;-90
2022/11/01 08:22:14;;;;;;;13.23;2.70;;;14.70;99.90;;;;;;5091502;28;20043;-90
2022/11/01 08:24:40;;;;;;;11.35;2.83;;;14.70;99.90;;;;;;5091745;28;20114;-90
2022/11/01 08:27:06;;;;;;;6.47;1.33;;;14.80;99.90;;;;;;5091801;28;20036;-89
2022/11/01 08:29:31;;;;;;;5.55;1.33;;;14.80;99.90;;;;;;5092058;28;20047;-83
2022/11/01 08:31:57;;;;;;;10.18;2.03;;;14.70;99.90;;;;;;5091599;28;20044;-83
2022/11/01 08:34:22;;;;;;;8.05;1.35;;;14.80;99.90;;;;;;5091138;28;20032;-83
2022/11/01 08:36:48;;;;;;;9.98;2.58;;;14.80;99.90;;;;;;5091720;28;20031;-83
2022/11/01 08:39:13;;;;;;;10.35;2.20;;;14.80;99.90;;;;;;5074927;28;20028;-83
2022/11/01 08:41:39;;;;;;;10.45;1.80;;;14.90;99.90;;;;;;5075886;28;20061;-83
2022/11/01 08:44:04;;;;;;;12.00;2.45;;;14.90;99.90;;;;;;5092438;28;20116;-83
2022/11/01 08:46:30;;;;;;;11.23;2.97;;;14.90;99.90;;;;;;5090744;28;20119;-83
2022/11/01 08:48:58;;;;;;;12.40;3.25;;;14.90;99.90;;;;;;5092661;28;20132;-83
2022/11/01 08:51:24;;;;;;;9.20;1.67;;;15.00;99.90;;;;;;5074306;28;20473;-83
2022/11/01 08:53:57;;;;;;;11.85;2.72;;;14.90;99.90;;;;;;5091609;28;20409;-83
2022/11/01 08:56:23;;;;;;;6.60;1.27;;;15.00;99.90;;;;;;5089877;28;20051;-83
2022/11/01 08:58:53;;;;;;;12.43;2.75;;;15.00;99.90;;;;;;5074907;28;20397;-83
2022/11/01 09:01:20;;;;;;;14.00;3.30;;;15.10;99.90;;;;;;5092385;28;20496;-83
2022/11/01 09:03:46;;;;;;;12.13;3.03;;;15.10;98.80;;;;;;5091933;28;20044;-83
2022/11/01 09:06:12;;;;;;;9.13;1.63;;;15.10;99.60;;;;;;5075363;28;20039;-83
2022/11/01 09:08:37;;;;;;;14.13;3.33;;;15.10;99.90;;;;;;5075421;28;20046;-83
2022/11/01 09:11:05;;;;;;;13.77;3.15;;;15.20;98.30;;;;;;5092408;28;20040;-83
2022/11/01 09:13:31;;;;;;;8.82;1.88;;;15.20;99.20;;;;;;5074981;28;20138;-83
2022/11/01 09:15:57;;;;;;;14.20;3.67;;;15.10;98.50;;;;;;5092221;28;20074;-83
2022/11/01 09:18:22;;;;;;;14.10;3.40;;;15.10;98.60;;;;;;5075152;28;20044;-83
2022/11/01 09:20:55;;;;;;;13.55;3.25;;;15.20;99.90;;;;;;5091812;28;20040;-83
2022/11/01 09:23:21;;;;;;;10.48;1.73;;;15.20;98.80;;;;;;5074820;28;20040;-83
2022/11/01 09:25:46;;;;;;;11.57;1.63;;;15.20;99.70;;;;;;5091661;28;20086;-83
2022/11/01 09:28:12;;;;;;;6.65;1.52;;;15.20;99.70;;;;;;5092033;28;20040;-83
2022/11/01 09:30:38;;;;;;;15.02;3.20;;;15.20;98.70;;;;;;5091969;28;20048;-83
2022/11/01 09:33:05;;;;;;;14.75;3.55;;;15.30;98.40;;;;;;5091096;28;20036;-83
2022/11/01 09:35:31;;;;;;;12.95;3.00;;;15.30;97.50;;;;;;5091765;28;20118;-83
2022/11/01 09:37:58;;;;;;;18.60;3.58;;;15.30;99.10;;;;;;5091650;28;20046;-83
2022/11/01 09:40:25;;;;;;;9.55;2.22;;;15.40;99.90;;;;;;5091704;28;20032;-83
2022/11/01 09:42:52;;;;;;;17.77;3.47;;;15.40;99.40;;;;;;5091221;28;20046;-84
2022/11/01 09:45:21;;;;;;;7.25;1.50;;;15.40;99.30;;;;;;5074754;28;20131;-83
2022/11/01 09:47:51;;;;;;;17.27;2.95;;;15.40;98.90;;;;;;5072797;28;20040;-83
2022/11/01 09:50:22;;;;;;;14.73;3.05;;;15.50;99.90;;;;;;5074361;28;20036;-83
2022/11/01 09:52:53;;;;;;;14.00;2.92;;;15.60;99.20;;;;;;5091084;28;20127;-83
2022/11/01 09:55:32;;;;;;;14.88;2.00;;;15.70;99.30;;;;;;5091491;28;20032;-83
2022/11/01 09:58:06;;;;;;;7.93;1.55;;;15.70;99.90;;;;;;5091296;28;20047;-83
2022/11/01 10:00:37;;;;;;;15.43;3.50;;;15.70;99.90;;;;;;5092606;28;20055;-83
2022/11/01 10:03:32;;;;;;;16.58;4.25;;;15.80;99.90;;;;;;5073994;28;20039;-83
2022/11/01 10:06:03;;;;;;;16.08;3.28;;;15.90;99.80;;;;;;5074578;28;20036;-83
2022/11/01 10:08:47;;;;;;;15.23;3.47;;;15.90;99.30;;;;;;5074177;28;20052;-83
2022/11/01 10:11:34;;;;;;;17.88;3.83;;;15.90;98.10;;;;;;5088299;28;20071;-84
2022/11/01 10:14:21;;;;;;;16.75;3.85;;;15.80;97.50;;;;;;5087888;28;20063;-83
2022/11/01 10:17:10;;;;;;;15.27;3.45;;;15.90;99.20;;;;;;5089304;28;20511;-86
2022/11/01 10:19:37;;;;;;;14.38;3.38;;;15.90;98.90;;;;;;5087559;28;20048;-83
2022/11/01 10:22:31;;;;;;;9.18;2.67;;;15.80;99.20;;;;;;5090624;28;20392;-83
2022/11/01 10:25:18;;;;;;;7.82;1.73;;;15.70;99.90;;;;;;5090067;28;20532;-83
2022/11/01 10:28:05;;;;;;;14.10;3.38;;;15.70;99.90;;;;;;5074099;28;20093;-83
2022/11/01 10:31:02;;;;;;;13.35;3.33;;;15.80;98.80;;;;;;5090705;28;20051;-83
2022/11/01 10:33:55;;;;;;;13.07;3.10;;;15.80;97.40;;;;;;5071186;28;20496;-83
2022/11/01 10:36:27;;;;;;;14.52;3.20;;;15.80;99.90;;;;;;5090213;28;20032;-83
2022/11/01 10:39:14;;;;;;;9.40;2.03;;;15.90;99.90;;;;;;5090403;28;20040;-83
2022/11/01 10:41:46;;;;;;;16.20;3.08;;;15.90;99.90;;;;;;5091280;28;20055;-83
2022/11/01 10:44:16;;;;;;;12.52;1.80;;;15.90;99.90;;;;;;5074046;28;20576;-83
2022/11/01 10:46:46;;;;;;;15.18;3.33;;;15.90;99.90;;;;;;5090910;28;20148;-83
2022/11/01 10:50:04;;;;;;;18.25;3.83;;;16.00;99.90;;;;;;5090782;28;20386;-83
2022/11/01 10:52:55;;;;;;;17.65;4.55;;;16.10;99.90;;;;;;5012373;28;20050;-83
2022/11/01 10:55:25;;;;;;;17.75;4.45;;;16.20;99.90;;;;;;4996797;28;20053;-84
2022/11/01 10:57:57;;;;;;;14.05;3.47;;;16.20;98.90;;;;;;5013137;28;20123;-83
2022/11/01 11:00:22;;;;;;;15.10;3.63;;;16.20;99.90;;;;;;5013079;28;20051;-83
2022/11/01 11:02:55;;;;;;;16.40;3.75;;;16.30;98.20;;;;;;4995870;28;20280;-83
2022/11/01 11:05:23;;;;;;;15.60;3.35;;;16.30;98.10;;;;;;5013254;28;20426;-83
2022/11/01 11:07:49;;;;;;;11.57;2.08;;;16.30;99.50;;;;;;5012901;28;20107;-84
2022/11/01 11:10:21;;;;;;;16.17;3.88;;;16.30;99.00;;;;;;4996355;28;20045;-84
2022/11/01 11:12:48;;;;;;;;;;;16.50;99.60;;;;;;5012885;28;20045;-83
2022/11/01 11:15:21;;;;;;;18.38;3.90;;;16.50;98.60;;;;;;4996201;28;19999;-85
2022/11/01 11:17:53;;;;;;;8.52;1.70;;;16.50;98.80;;;;;;4996335;28;20088;-85
2022/11/01 11:20:25;;;;;;;15.53;3.63;;;16.40;98.80;;;;;;5012906;28;20445;-85
2022/11/01 11:22:51;;;;;;;;;;;16.40;98.90;;;;;;5012995;28;20283;-84
2022/11/01 11:25:20;;;;;;;13.05;3.13;;;16.30;98.90;;;;;;4996467;28;20464;-85
2022/11/01 11:27:51;;;;;;;14.38;3.78;;;16.30;99.90;;;;;;5050507;28;20095;-85
2022/11/01 11:30:29;;;;;;;16.50;3.47;;;16.30;99.10;;;;;;5090584;28;20044;-85
2022/11/01 11:32:55;;;;;;;12.60;2.92;;;16.30;99.70;;;;;;5090040;28;20047;-85
2022/11/01 11:35:23;;;;;;;12.80;2.33;;;16.50;99.90;;;;;;5073784;28;20437;-85
2022/11/01 11:37:54;;;;;;;15.82;3.85;;;16.60;99.90;;;;;;5090406;28;20040;-85
2022/11/01 11:40:30;;;;;;;14.65;3.25;;;16.60;97.90;;;;;;5090050;28;20032;-85
2022/11/01 11:43:21;;;;;;;17.17;3.45;;;16.60;97.30;;;;;;5090344;28;20114;-85
2022/11/01 11:46:13;;;;;;;15.48;3.83;;;16.70;96.60;;;;;;5073401;28;20036;-85
2022/11/01 11:48:47;;;;;;;16.38;3.83;;;16.70;95.50;;;;;;5073552;28;20128;-85
2022/11/01 11:51:13;;;;;;;18.38;3.97;;;16.70;96.50;;;;;;5094193;28;20123;-85
2022/11/01 11:53:39;;;;;;;14.95;3.80;;;16.70;95.70;;;;;;5093788;28;20127;-85
2022/11/01 11:56:07;;;;;;;19.63;3.80;;;16.80;96.00;;;;;;5094460;28;20131;-85
2022/11/01 11:58:39;;;;;;;13.15;3.17;;;16.90;95.70;;;;;;5095571;28;20396;-85
2022/11/01 12:01:08;;;;;;;13.98;3.53;;;17.00;96.50;;;;;;5091222;28;20143;-85
2022/11/01 12:03:43;;;;;;;13.60;3.03;;;16.90;94.30;;;;;;5093133;28;20043;-85
2022/11/01 12:06:09;;;;;;;11.82;2.70;;;17.00;94.50;;;;;;5094006;28;20723;-85
2022/11/01 12:08:44;;;;;;;13.35;3.33;;;17.00;93.60;;;;;;5093415;28;20036;-85
2022/11/01 12:11:11;;;;;;;12.57;3.10;;;17.20;93.10;;;;;;5093763;28;20401;-84
2022/11/01 12:13:58;;;;;;;20.45;4.22;;;17.20;94.00;;;;;;5075215;28;20044;-85
2022/11/01 12:16:23;;;;;;;14.27;2.95;;;17.40;93.30;;;;;;5090543;28;20115;-85
2022/11/01 12:18:59;;;;;;;13.55;3.17;;;17.50;91.70;;;;;;5101424;28;20110;-84
2022/11/01 12:21:33;;;;;;;13.65;3.20;;;17.80;89.90;;;;;;5088113;28;20035;-84
2022/11/01 12:24:20;;;;;;;12.85;3.08;;;18.10;90.50;;;;;;5103824;28;20051;-85
2022/11/01 12:26:47;;;;;;;12.18;2.95;;;18.50;88.30;;;;;;5093068;28;20036;-85
2022/11/01 12:29:31;;;;;;;15.95;2.92;;;18.80;81.00;;;;;;5093252;28;20434;-85
2022/11/01 12:32:03;;;;;;;11.50;2.83;;;19.00;77.70;;;;;;5092777;28;20047;-85
2022/11/01 12:34:33;;;;;;;12.30;2.50;;;19.70;79.20;;;;;;5093021;28;20031;-85
2022/11/01 12:37:18;;;;;;;11.93;2.78;;;20.30;74.20;;;;;;5109867;28;20077;-85
2022/11/01 12:40:05;;;;;;;10.25;2.65;;;20.40;70.50;;;;;;5127225;27;20040;-85
2022/11/01 12:42:48;;;;;;;10.20;2.53;;;20.80;69.90;;;;;;5092549;28;20040;-85
2022/11/01 12:45:23;;;;;;;12.20;2.67;;;21.50;69.10;;;;;;5076344;28;20067;-85
2022/11/01 12:47:58;;;;;;;12.98;2.70;;;21.80;65.70;;;;;;5092838;28;20092;-85
2022/11/01 12:50:59;;;;;;;13.02;3.10;;;22.20;64.80;;;;;;5075035;28;20036;-85
2022/11/01 12:53:33;;;;;;;12.35;2.88;;;22.80;62.40;;;;;;5038583;28;20057;-85
2022/11/01 12:55:59;;;;;;;10.85;2.50;;;23.10;62.80;;;;;;4995348;28;20060;-85
2022/11/01 12:58:26;;;;;;;12.77;2.90;;;23.50;61.70;;;;;;5013857;28;20057;-86
2022/11/01 13:01:05;;;;;;;11.73;2.65;;;23.50;60.10;;;;;;5022014;28;20052;-86
2022/11/01 13:04:19;;;;;;;10.98;2.95;;;23.90;59.70;;;;;;5037658;28;20045;-85